sensor_id;sensor_type;location;lat;lon;timestamp;temperature;humidity
13049;DHT22;6591;51.446;5.404;2023-08-31T00:01:37;14.90;99.90
13049;DHT22;6591;51.446;5.404;2023-08-31T00:04:05;13.60;99.90
13049;DHT22;6591;51.446;5.404;2023-08-31T00:06:35;13.30;99.90
13049;DHT22;6591;51.446;5.404;2023-08-31T00:09:02;13.40;99.90
13049;DHT22;6591;51.446;5.404;2023-08-31T00:11:36;13.20;99.90
13049;DHT22;6591;51.446;5.404;2023-08-31T00:14:03;13.70;99.90
13049;DHT22;6591;51.446;5.404;2023-08-31T00:16:31;13.10;99.90
13049;DHT22;6591;51.446;5.404;2023-08-31T00:19:00;13.10;99.90
13049;DHT22;6591;51.446;5.404;2023-08-31T00:21:27;13.50;99.90
13049;DHT22;6591;51.446;5.404;2023-08-31T00:23:57;13.30;99.90
13049;DHT22;6591;51.446;5.404;2023-08-31T00:26:24;13.00;99.90
13049;DHT22;6591;51.446;5.404;2023-08-31T00:28:52;14.50;99.90
13049;DHT22;6591;51.446;5.404;2023-08-31T00:31:21;14.70;99.90
13049;DHT22;6591;51.446;5.404;2023-08-31T00:33:48;13.80;99.90
13049;DHT22;6591;51.446;5.404;2023-08-31T00:36:17;12.80;99.90
13049;DHT22;6591;51.446;5.404;2023-08-31T00:38:46;14.20;99.90
13049;DHT22;6591;51.446;5.404;2023-08-31T00:41:13;12.70;99.90
13049;DHT22;6591;51.446;5.404;2023-08-31T00:43:40;14.20;99.90
13049;DHT22;6591;51.446;5.404;2023-08-31T00:46:07;12.70;99.90
13049;DHT22;6591;51.446;5.404;2023-08-31T00:48:34;14.60;99.90
13049;DHT22;6591;51.446;5.404;2023-08-31T00:51:01;14.30;99.90
13049;DHT22;6591;51.446;5.404;2023-08-31T00:53:30;13.40;99.90
13049;DHT22;6591;51.446;5.404;2023-08-31T00:55:59;12.70;99.90
13049;DHT22;6591;51.446;5.404;2023-08-31T00:58:26;14.80;99.90
13049;DHT22;6591;51.446;5.404;2023-08-31T01:07:09;12.50;99.90
13049;DHT22;6591;51.446;5.404;2023-08-31T01:12:59;12.50;99.90
13049;DHT22;6591;51.446;5.404;2023-08-31T01:15:31;12.50;99.90
13049;DHT22;6591;51.446;5.404;2023-08-31T01:18:00;14.60;99.90
13049;DHT22;6591;51.446;5.404;2023-08-31T01:20:34;11.20;99.90
13049;DHT22;6591;51.446;5.404;2023-08-31T01:23:13;12.40;99.90
13049;DHT22;6591;51.446;5.404;2023-08-31T01:25:43;14.60;99.90
13049;DHT22;6591;51.446;5.404;2023-08-31T01:28:11;13.70;99.90
13049;DHT22;6591;51.446;5.404;2023-08-31T01:30:39;14.50;99.90
13049;DHT22;6591;51.446;5.404;2023-08-31T01:33:07;12.40;99.90
13049;DHT22;6591;51.446;5.404;2023-08-31T01:35:40;12.30;99.90
13049;DHT22;6591;51.446;5.404;2023-08-31T01:38:15;14.20;99.90
13049;DHT22;6591;51.446;5.404;2023-08-31T01:41:07;14.10;99.90
13049;DHT22;6591;51.446;5.404;2023-08-31T01:43:40;13.90;99.90
13049;DHT22;6591;51.446;5.404;2023-08-31T01:46:08;14.50;99.90
13049;DHT22;6591;51.446;5.404;2023-08-31T01:48:40;13.90;99.90
13049;DHT22;6591;51.446;5.404;2023-08-31T01:51:09;13.80;99.90
13049;DHT22;6591;51.446;5.404;2023-08-31T01:53:36;14.50;99.90
13049;DHT22;6591;51.446;5.404;2023-08-31T01:56:04;13.20;99.90
13049;DHT22;6591;51.446;5.404;2023-08-31T01:58:32;12.30;99.90
13049;DHT22;6591;51.446;5.404;2023-08-31T02:00:59;13.40;99.90
13049;DHT22;6591;51.446;5.404;2023-08-31T02:03:27;13.30;99.90
13049;DHT22;6591;51.446;5.404;2023-08-31T02:05:54;12.30;99.90
13049;DHT22;6591;51.446;5.404;2023-08-31T02:08:21;12.30;99.90
13049;DHT22;6591;51.446;5.404;2023-08-31T02:10:50;13.80;99.90
13049;DHT22;6591;51.446;5.404;2023-08-31T02:13:22;14.40;99.90
13049;DHT22;6591;51.446;5.404;2023-08-31T02:15:52;13.50;99.90
13049;DHT22;6591;51.446;5.404;2023-08-31T02:18:22;12.30;99.90
13049;DHT22;6591;51.446;5.404;2023-08-31T02:20:52;12.40;99.90
13049;DHT22;6591;51.446;5.404;2023-08-31T02:23:20;14.50;99.90
13049;DHT22;6591;51.446;5.404;2023-08-31T02:25:51;12.40;99.90
13049;DHT22;6591;51.446;5.404;2023-08-31T02:28:18;13.90;99.90
13049;DHT22;6591;51.446;5.404;2023-08-31T02:30:46;12.50;99.90
13049;DHT22;6591;51.446;5.404;2023-08-31T02:33:13;12.60;99.90
13049;DHT22;6591;51.446;5.404;2023-08-31T02:35:40;13.60;99.90
13049;DHT22;6591;51.446;5.404;2023-08-31T02:38:07;13.60;99.90
13049;DHT22;6591;51.446;5.404;2023-08-31T02:40:34;12.70;99.90
13049;DHT22;6591;51.446;5.404;2023-08-31T02:43:01;12.70;99.90
13049;DHT22;6591;51.446;5.404;2023-08-31T02:45:29;12.70;99.90
13049;DHT22;6591;51.446;5.404;2023-08-31T02:47:56;14.30;99.90
13049;DHT22;6591;51.446;5.404;2023-08-31T02:50:24;13.50;99.90
13049;DHT22;6591;51.446;5.404;2023-08-31T02:52:51;13.50;99.90
13049;DHT22;6591;51.446;5.404;2023-08-31T02:55:18;14.30;99.90
13049;DHT22;6591;51.446;5.404;2023-08-31T02:57:46;12.50;99.90
13049;DHT22;6591;51.446;5.404;2023-08-31T03:00:13;13.80;99.90
13049;DHT22;6591;51.446;5.404;2023-08-31T03:02:41;12.50;99.90
13049;DHT22;6591;51.446;5.404;2023-08-31T03:05:10;14.50;99.90
13049;DHT22;6591;51.446;5.404;2023-08-31T03:07:37;12.40;99.90
13049;DHT22;6591;51.446;5.404;2023-08-31T03:10:06;13.80;99.90
13049;DHT22;6591;51.446;5.404;2023-08-31T03:12:33;12.30;99.90
13049;DHT22;6591;51.446;5.404;2023-08-31T03:15:00;12.30;99.90
13049;DHT22;6591;51.446;5.404;2023-08-31T03:17:27;13.70;99.90
13049;DHT22;6591;51.446;5.404;2023-08-31T03:19:54;13.70;99.90
13049;DHT22;6591;51.446;5.404;2023-08-31T03:22:21;13.50;99.90
13049;DHT22;6591;51.446;5.404;2023-08-31T03:24:48;12.20;99.90
13049;DHT22;6591;51.446;5.404;2023-08-31T03:27:15;13.90;99.90
13049;DHT22;6591;51.446;5.404;2023-08-31T03:29:43;14.10;99.90
13049;DHT22;6591;51.446;5.404;2023-08-31T03:32:11;13.50;99.90
13049;DHT22;6591;51.446;5.404;2023-08-31T03:34:38;14.20;99.90
13049;DHT22;6591;51.446;5.404;2023-08-31T03:37:05;13.90;99.90
13049;DHT22;6591;51.446;5.404;2023-08-31T03:39:33;12.10;99.90
13049;DHT22;6591;51.446;5.404;2023-08-31T03:42:01;13.00;99.90
13049;DHT22;6591;51.446;5.404;2023-08-31T03:44:29;13.40;99.90
13049;DHT22;6591;51.446;5.404;2023-08-31T03:46:56;12.10;99.90
13049;DHT22;6591;51.446;5.404;2023-08-31T03:49:23;13.10;99.90
13049;DHT22;6591;51.446;5.404;2023-08-31T03:51:50;12.10;99.90
13049;DHT22;6591;51.446;5.404;2023-08-31T03:54:20;12.10;99.90
13049;DHT22;6591;51.446;5.404;2023-08-31T03:56:47;14.10;99.90
13049;DHT22;6591;51.446;5.404;2023-08-31T03:59:14;12.10;99.90
13049;DHT22;6591;51.446;5.404;2023-08-31T04:01:43;12.00;99.90
13049;DHT22;6591;51.446;5.404;2023-08-31T04:04:11;13.40;99.90
13049;DHT22;6591;51.446;5.404;2023-08-31T04:06:38;12.30;99.90
13049;DHT22;6591;51.446;5.404;2023-08-31T04:09:05;12.10;99.90
13049;DHT22;6591;51.446;5.404;2023-08-31T04:11:33;13.70;99.90
13049;DHT22;6591;51.446;5.404;2023-08-31T04:14:02;14.20;99.90
13049;DHT22;6591;51.446;5.404;2023-08-31T04:16:32;12.50;99.90
13049;DHT22;6591;51.446;5.404;2023-08-31T04:18:59;14.00;99.90
13049;DHT22;6591;51.446;5.404;2023-08-31T04:21:27;12.60;99.90
13049;DHT22;6591;51.446;5.404;2023-08-31T04:23:54;12.90;99.90
13049;DHT22;6591;51.446;5.404;2023-08-31T04:26:21;13.00;99.90
13049;DHT22;6591;51.446;5.404;2023-08-31T04:28:48;13.70;99.90
13049;DHT22;6591;51.446;5.404;2023-08-31T04:31:15;12.90;99.90
13049;DHT22;6591;51.446;5.404;2023-08-31T04:33:42;12.00;99.90
13049;DHT22;6591;51.446;5.404;2023-08-31T04:36:09;12.10;99.90
13049;DHT22;6591;51.446;5.404;2023-08-31T04:38:37;13.00;99.90
13049;DHT22;6591;51.446;5.404;2023-08-31T04:41:05;12.00;99.90
13049;DHT22;6591;51.446;5.404;2023-08-31T04:43:32;12.10;99.90
13049;DHT22;6591;51.446;5.404;2023-08-31T04:46:01;12.10;99.90
13049;DHT22;6591;51.446;5.404;2023-08-31T04:48:30;13.10;99.90
13049;DHT22;6591;51.446;5.404;2023-08-31T04:50:58;13.10;99.90
13049;DHT22;6591;51.446;5.404;2023-08-31T04:53:25;12.10;99.90
13049;DHT22;6591;51.446;5.404;2023-08-31T04:55:53;12.50;99.90
13049;DHT22;6591;51.446;5.404;2023-08-31T04:58:20;13.50;99.90
13049;DHT22;6591;51.446;5.404;2023-08-31T05:00:47;13.90;99.90
13049;DHT22;6591;51.446;5.404;2023-08-31T05:04:28;12.10;99.90
13049;DHT22;6591;51.446;5.404;2023-08-31T05:06:55;12.10;99.90
13049;DHT22;6591;51.446;5.404;2023-08-31T05:09:24;12.10;99.90
13049;DHT22;6591;51.446;5.404;2023-08-31T05:11:52;12.20;99.90
13049;DHT22;6591;51.446;5.404;2023-08-31T05:14:19;12.10;99.90
13049;DHT22;6591;51.446;5.404;2023-08-31T05:16:46;14.10;99.90
13049;DHT22;6591;51.446;5.404;2023-08-31T05:19:14;12.20;99.90
13049;DHT22;6591;51.446;5.404;2023-08-31T05:21:41;12.20;99.90
13049;DHT22;6591;51.446;5.404;2023-08-31T05:24:08;12.30;99.90
13049;DHT22;6591;51.446;5.404;2023-08-31T05:26:35;13.50;99.90
13049;DHT22;6591;51.446;5.404;2023-08-31T05:29:02;14.20;99.90
13049;DHT22;6591;51.446;5.404;2023-08-31T05:32:00;12.40;99.90
13049;DHT22;6591;51.446;5.404;2023-08-31T05:34:27;12.40;99.90
13049;DHT22;6591;51.446;5.404;2023-08-31T05:36:55;13.80;99.90
13049;DHT22;6591;51.446;5.404;2023-08-31T05:39:22;14.70;99.90
13049;DHT22;6591;51.446;5.404;2023-08-31T05:41:49;12.50;99.90
13049;DHT22;6591;51.446;5.404;2023-08-31T05:44:16;12.50;99.90
13049;DHT22;6591;51.446;5.404;2023-08-31T05:46:43;13.50;99.90
13049;DHT22;6591;51.446;5.404;2023-08-31T05:49:10;13.70;99.90
13049;DHT22;6591;51.446;5.404;2023-08-31T05:51:37;12.60;99.90
13049;DHT22;6591;51.446;5.404;2023-08-31T05:54:04;14.40;99.90
13049;DHT22;6591;51.446;5.404;2023-08-31T05:56:39;12.70;99.90
13049;DHT22;6591;51.446;5.404;2023-08-31T05:59:07;12.70;99.90
13049;DHT22;6591;51.446;5.404;2023-08-31T06:01:35;14.90;99.90
13049;DHT22;6591;51.446;5.404;2023-08-31T06:04:03;14.00;99.90
13049;DHT22;6591;51.446;5.404;2023-08-31T06:06:32;12.90;99.90
13049;DHT22;6591;51.446;5.404;2023-08-31T06:09:00;13.80;99.90
13049;DHT22;6591;51.446;5.404;2023-08-31T06:11:27;15.20;99.90
13049;DHT22;6591;51.446;5.404;2023-08-31T06:13:54;13.20;99.90
13049;DHT22;6591;51.446;5.404;2023-08-31T06:16:21;13.40;99.90
13049;DHT22;6591;51.446;5.404;2023-08-31T06:18:51;13.90;99.90
13049;DHT22;6591;51.446;5.404;2023-08-31T06:21:18;13.50;99.90
13049;DHT22;6591;51.446;5.404;2023-08-31T06:23:45;15.40;99.90
13049;DHT22;6591;51.446;5.404;2023-08-31T06:26:12;14.60;99.90
13049;DHT22;6591;51.446;5.404;2023-08-31T06:28:39;13.90;99.90
13049;DHT22;6591;51.446;5.404;2023-08-31T06:31:06;14.40;99.90
13049;DHT22;6591;51.446;5.404;2023-08-31T06:33:34;15.70;99.90
13049;DHT22;6591;51.446;5.404;2023-08-31T06:36:01;16.20;99.90
13049;DHT22;6591;51.446;5.404;2023-08-31T06:38:28;15.00;99.90
13049;DHT22;6591;51.446;5.404;2023-08-31T06:40:55;14.50;99.90
13049;DHT22;6591;51.446;5.404;2023-08-31T06:43:26;14.60;99.90
13049;DHT22;6591;51.446;5.404;2023-08-31T06:45:56;14.70;99.90
13049;DHT22;6591;51.446;5.404;2023-08-31T06:48:36;16.00;99.90
13049;DHT22;6591;51.446;5.404;2023-08-31T06:51:03;15.00;99.90
13049;DHT22;6591;51.446;5.404;2023-08-31T06:53:30;15.10;99.90
13049;DHT22;6591;51.446;5.404;2023-08-31T06:56:00;15.30;99.90
13049;DHT22;6591;51.446;5.404;2023-08-31T06:58:27;16.20;99.90
13049;DHT22;6591;51.446;5.404;2023-08-31T07:00:54;15.50;99.90
13049;DHT22;6591;51.446;5.404;2023-08-31T07:03:21;15.70;99.90
13049;DHT22;6591;51.446;5.404;2023-08-31T07:05:53;15.80;99.90
13049;DHT22;6591;51.446;5.404;2023-08-31T07:08:21;18.10;99.90
13049;DHT22;6591;51.446;5.404;2023-08-31T07:10:50;16.00;99.90
13049;DHT22;6591;51.446;5.404;2023-08-31T07:13:17;16.20;99.90
13049;DHT22;6591;51.446;5.404;2023-08-31T07:15:44;16.30;99.90
13049;DHT22;6591;51.446;5.404;2023-08-31T07:18:11;16.40;99.90
13049;DHT22;6591;51.446;5.404;2023-08-31T07:20:39;18.30;99.90
13049;DHT22;6591;51.446;5.404;2023-08-31T07:23:06;16.70;99.90
13049;DHT22;6591;51.446;5.404;2023-08-31T07:25:33;16.80;99.90
13049;DHT22;6591;51.446;5.404;2023-08-31T07:28:00;18.50;99.90
13049;DHT22;6591;51.446;5.404;2023-08-31T07:30:27;17.00;99.90
13049;DHT22;6591;51.446;5.404;2023-08-31T07:32:54;17.20;99.90
13049;DHT22;6591;51.446;5.404;2023-08-31T07:35:22;17.40;99.90
13049;DHT22;6591;51.446;5.404;2023-08-31T07:37:48;17.50;99.90
13049;DHT22;6591;51.446;5.404;2023-08-31T07:40:16;18.40;99.90
13049;DHT22;6591;51.446;5.404;2023-08-31T07:42:43;17.80;99.90
13049;DHT22;6591;51.446;5.404;2023-08-31T07:45:10;17.90;99.90
13049;DHT22;6591;51.446;5.404;2023-08-31T07:47:37;18.10;99.90
13049;DHT22;6591;51.446;5.404;2023-08-31T07:50:04;18.20;99.90
13049;DHT22;6591;51.446;5.404;2023-08-31T07:52:33;18.40;99.90
13049;DHT22;6591;51.446;5.404;2023-08-31T07:55:00;18.50;99.90
13049;DHT22;6591;51.446;5.404;2023-08-31T07:57:28;19.90;99.90
13049;DHT22;6591;51.446;5.404;2023-08-31T07:59:55;20.10;99.90
13049;DHT22;6591;51.446;5.404;2023-08-31T08:02:22;18.80;99.90
13049;DHT22;6591;51.446;5.404;2023-08-31T08:04:50;18.90;99.90
13049;DHT22;6591;51.446;5.404;2023-08-31T08:07:17;20.10;99.90
13049;DHT22;6591;51.446;5.404;2023-08-31T08:09:44;19.10;99.90
13049;DHT22;6591;51.446;5.404;2023-08-31T08:12:12;19.20;99.90
13049;DHT22;6591;51.446;5.404;2023-08-31T08:14:39;19.30;99.90
13049;DHT22;6591;51.446;5.404;2023-08-31T08:17:06;19.40;99.90
13049;DHT22;6591;51.446;5.404;2023-08-31T08:19:33;19.60;99.90
13049;DHT22;6591;51.446;5.404;2023-08-31T08:22:00;19.70;99.90
13049;DHT22;6591;51.446;5.404;2023-08-31T08:24:27;19.90;99.90
13049;DHT22;6591;51.446;5.404;2023-08-31T08:26:54;20.00;99.90
13049;DHT22;6591;51.446;5.404;2023-08-31T08:29:21;20.30;99.90
13049;DHT22;6591;51.446;5.404;2023-08-31T08:31:48;20.30;99.90
13049;DHT22;6591;51.446;5.404;2023-08-31T08:34:15;20.40;99.90
13049;DHT22;6591;51.446;5.404;2023-08-31T08:36:42;21.10;99.90
13049;DHT22;6591;51.446;5.404;2023-08-31T08:39:10;20.70;99.90
13049;DHT22;6591;51.446;5.404;2023-08-31T08:41:37;20.80;99.90
13049;DHT22;6591;51.446;5.404;2023-08-31T08:44:07;21.00;99.90
13049;DHT22;6591;51.446;5.404;2023-08-31T08:46:35;21.10;99.90
13049;DHT22;6591;51.446;5.404;2023-08-31T08:49:03;21.20;99.90
13049;DHT22;6591;51.446;5.404;2023-08-31T08:51:35;21.40;99.90
13049;DHT22;6591;51.446;5.404;2023-08-31T08:54:02;21.60;99.90
13049;DHT22;6591;51.446;5.404;2023-08-31T08:56:30;21.80;99.90
13049;DHT22;6591;51.446;5.404;2023-08-31T08:58:57;22.30;99.90
13049;DHT22;6591;51.446;5.404;2023-08-31T09:01:24;22.10;99.90
13049;DHT22;6591;51.446;5.404;2023-08-31T09:03:52;22.20;99.90
13049;DHT22;6591;51.446;5.404;2023-08-31T09:06:19;22.80;99.90
13049;DHT22;6591;51.446;5.404;2023-08-31T09:08:56;22.50;99.90
13049;DHT22;6591;51.446;5.404;2023-08-31T09:11:24;22.70;99.90
13049;DHT22;6591;51.446;5.404;2023-08-31T09:13:52;22.90;99.90
13049;DHT22;6591;51.446;5.404;2023-08-31T09:16:29;23.00;99.90
13049;DHT22;6591;51.446;5.404;2023-08-31T09:18:58;22.90;99.90
13049;DHT22;6591;51.446;5.404;2023-08-31T09:21:35;22.90;99.90
13049;DHT22;6591;51.446;5.404;2023-08-31T09:24:05;22.90;99.90
13049;DHT22;6591;51.446;5.404;2023-08-31T09:26:48;23.10;99.90
13049;DHT22;6591;51.446;5.404;2023-08-31T09:29:25;23.50;99.90
13049;DHT22;6591;51.446;5.404;2023-08-31T09:31:52;23.40;99.90
13049;DHT22;6591;51.446;5.404;2023-08-31T09:34:19;23.50;99.90
13049;DHT22;6591;51.446;5.404;2023-08-31T09:36:49;23.50;99.90
13049;DHT22;6591;51.446;5.404;2023-08-31T09:39:16;23.50;99.90
13049;DHT22;6591;51.446;5.404;2023-08-31T09:41:54;23.50;99.90
13049;DHT22;6591;51.446;5.404;2023-08-31T09:44:22;23.60;99.90
13049;DHT22;6591;51.446;5.404;2023-08-31T09:46:49;23.60;99.90
13049;DHT22;6591;51.446;5.404;2023-08-31T09:49:17;23.80;99.90
13049;DHT22;6591;51.446;5.404;2023-08-31T09:51:49;23.80;99.90
13049;DHT22;6591;51.446;5.404;2023-08-31T09:54:20;23.80;99.90
13049;DHT22;6591;51.446;5.404;2023-08-31T09:56:51;23.70;99.90
13049;DHT22;6591;51.446;5.404;2023-08-31T09:59:23;23.80;99.90
13049;DHT22;6591;51.446;5.404;2023-08-31T10:01:52;23.90;99.90
13049;DHT22;6591;51.446;5.404;2023-08-31T10:04:23;24.10;99.90
13049;DHT22;6591;51.446;5.404;2023-08-31T10:06:51;24.00;99.60
13049;DHT22;6591;51.446;5.404;2023-08-31T10:09:19;24.00;99.30
13049;DHT22;6591;51.446;5.404;2023-08-31T10:11:46;24.50;99.30
13049;DHT22;6591;51.446;5.404;2023-08-31T10:14:15;24.10;98.70
13049;DHT22;6591;51.446;5.404;2023-08-31T10:16:44;24.20;98.20
13049;DHT22;6591;51.446;5.404;2023-08-31T10:19:12;24.20;97.80
13049;DHT22;6591;51.446;5.404;2023-08-31T10:21:40;24.30;97.60
13049;DHT22;6591;51.446;5.404;2023-08-31T10:24:08;24.30;97.30
13049;DHT22;6591;51.446;5.404;2023-08-31T10:26:35;24.50;97.30
13049;DHT22;6591;51.446;5.404;2023-08-31T10:29:02;24.60;97.40
13049;DHT22;6591;51.446;5.404;2023-08-31T10:31:34;24.80;97.20
13049;DHT22;6591;51.446;5.404;2023-08-31T10:34:03;25.00;97.10
13049;DHT22;6591;51.446;5.404;2023-08-31T10:36:44;25.10;96.70
13049;DHT22;6591;51.446;5.404;2023-08-31T10:39:21;25.20;95.60
13049;DHT22;6591;51.446;5.404;2023-08-31T10:41:55;25.20;95.00
13049;DHT22;6591;51.446;5.404;2023-08-31T10:44:24;25.20;94.20
13049;DHT22;6591;51.446;5.404;2023-08-31T10:46:53;25.10;95.00
13049;DHT22;6591;51.446;5.404;2023-08-31T10:49:22;25.10;94.20
13049;DHT22;6591;51.446;5.404;2023-08-31T10:51:54;25.10;94.10
13049;DHT22;6591;51.446;5.404;2023-08-31T10:54:26;24.90;94.00
13049;DHT22;6591;51.446;5.404;2023-08-31T10:59:26;25.00;94.40
13049;DHT22;6591;51.446;5.404;2023-08-31T11:02:07;25.10;94.20
13049;DHT22;6591;51.446;5.404;2023-08-31T11:04:55;25.20;93.50
13049;DHT22;6591;51.446;5.404;2023-08-31T11:07:27;25.40;92.90
13049;DHT22;6591;51.446;5.404;2023-08-31T11:10:20;25.50;93.30
13049;DHT22;6591;51.446;5.404;2023-08-31T11:12:54;25.60;92.70
13049;DHT22;6591;51.446;5.404;2023-08-31T11:15:25;25.70;93.50
13049;DHT22;6591;51.446;5.404;2023-08-31T11:17:54;25.80;93.20
13049;DHT22;6591;51.446;5.404;2023-08-31T11:20:24;25.90;92.90
13049;DHT22;6591;51.446;5.404;2023-08-31T11:22:56;25.90;92.50
13049;DHT22;6591;51.446;5.404;2023-08-31T11:25:23;25.70;92.10
13049;DHT22;6591;51.446;5.404;2023-08-31T11:27:55;25.60;92.00
13049;DHT22;6591;51.446;5.404;2023-08-31T11:30:31;25.40;91.90
13049;DHT22;6591;51.446;5.404;2023-08-31T11:33:03;25.20;92.00
13049;DHT22;6591;51.446;5.404;2023-08-31T11:35:40;25.20;92.20
13049;DHT22;6591;51.446;5.404;2023-08-31T11:38:10;25.20;92.20
13049;DHT22;6591;51.446;5.404;2023-08-31T11:40:39;25.20;92.70
13049;DHT22;6591;51.446;5.404;2023-08-31T11:43:06;25.30;92.60
13049;DHT22;6591;51.446;5.404;2023-08-31T11:45:35;25.40;92.70
13049;DHT22;6591;51.446;5.404;2023-08-31T11:48:06;25.60;92.80
13049;DHT22;6591;51.446;5.404;2023-08-31T11:50:35;25.90;92.70
13049;DHT22;6591;51.446;5.404;2023-08-31T11:53:04;26.20;92.60
13049;DHT22;6591;51.446;5.404;2023-08-31T11:55:33;26.50;92.40
13049;DHT22;6591;51.446;5.404;2023-08-31T11:58:00;26.70;92.00
13049;DHT22;6591;51.446;5.404;2023-08-31T12:00:27;27.00;92.10
13049;DHT22;6591;51.446;5.404;2023-08-31T12:03:01;27.30;91.60
13049;DHT22;6591;51.446;5.404;2023-08-31T12:05:45;27.70;91.30
13049;DHT22;6591;51.446;5.404;2023-08-31T12:08:14;27.90;90.00
13049;DHT22;6591;51.446;5.404;2023-08-31T12:10:42;28.10;90.40
13049;DHT22;6591;51.446;5.404;2023-08-31T12:13:10;28.30;90.40
13049;DHT22;6591;51.446;5.404;2023-08-31T12:15:42;28.40;89.50
13049;DHT22;6591;51.446;5.404;2023-08-31T12:18:09;28.50;87.00
13049;DHT22;6591;51.446;5.404;2023-08-31T12:20:44;28.40;86.60
13049;DHT22;6591;51.446;5.404;2023-08-31T12:23:14;28.30;86.10
13049;DHT22;6591;51.446;5.404;2023-08-31T12:25:46;28.10;85.40
13049;DHT22;6591;51.446;5.404;2023-08-31T12:28:16;27.90;84.20
13049;DHT22;6591;51.446;5.404;2023-08-31T12:30:52;27.60;84.10
13049;DHT22;6591;51.446;5.404;2023-08-31T12:33:23;27.30;83.20
13049;DHT22;6591;51.446;5.404;2023-08-31T12:35:51;27.00;84.00
13049;DHT22;6591;51.446;5.404;2023-08-31T12:38:18;26.60;84.20
13049;DHT22;6591;51.446;5.404;2023-08-31T12:40:46;26.40;84.50
13049;DHT22;6591;51.446;5.404;2023-08-31T12:43:14;26.00;84.70
13049;DHT22;6591;51.446;5.404;2023-08-31T12:45:43;25.50;85.50
13049;DHT22;6591;51.446;5.404;2023-08-31T12:48:10;25.00;87.00
13049;DHT22;6591;51.446;5.404;2023-08-31T12:50:38;24.50;88.70
13049;DHT22;6591;51.446;5.404;2023-08-31T12:53:05;24.00;89.60
13049;DHT22;6591;51.446;5.404;2023-08-31T12:55:33;23.40;90.30
13049;DHT22;6591;51.446;5.404;2023-08-31T12:58:00;23.00;90.80
13049;DHT22;6591;51.446;5.404;2023-08-31T13:00:27;22.50;91.40
13049;DHT22;6591;51.446;5.404;2023-08-31T13:02:54;22.10;92.80
13049;DHT22;6591;51.446;5.404;2023-08-31T13:05:22;21.90;92.80
13049;DHT22;6591;51.446;5.404;2023-08-31T13:07:49;21.30;93.40
13049;DHT22;6591;51.446;5.404;2023-08-31T13:10:16;20.90;93.90
13049;DHT22;6591;51.446;5.404;2023-08-31T13:12:43;20.60;94.30
13049;DHT22;6591;51.446;5.404;2023-08-31T13:15:10;20.50;95.00
13049;DHT22;6591;51.446;5.404;2023-08-31T13:17:37;20.00;95.90
13049;DHT22;6591;51.446;5.404;2023-08-31T13:20:05;20.20;96.30
13049;DHT22;6591;51.446;5.404;2023-08-31T13:22:32;19.40;96.60
13049;DHT22;6591;51.446;5.404;2023-08-31T13:24:59;19.20;96.70
13049;DHT22;6591;51.446;5.404;2023-08-31T13:27:27;19.30;97.50
13049;DHT22;6591;51.446;5.404;2023-08-31T13:29:56;19.90;98.30
13049;DHT22;6591;51.446;5.404;2023-08-31T13:32:23;18.60;98.30
13049;DHT22;6591;51.446;5.404;2023-08-31T13:34:50;18.50;98.70
13049;DHT22;6591;51.446;5.404;2023-08-31T13:37:17;18.40;99.30
13049;DHT22;6591;51.446;5.404;2023-08-31T13:39:44;18.40;99.90
13049;DHT22;6591;51.446;5.404;2023-08-31T13:42:11;18.70;99.90
13049;DHT22;6591;51.446;5.404;2023-08-31T13:44:38;18.80;99.90
13049;DHT22;6591;51.446;5.404;2023-08-31T13:47:05;18.80;99.90
13049;DHT22;6591;51.446;5.404;2023-08-31T13:49:33;19.10;99.90
13049;DHT22;6591;51.446;5.404;2023-08-31T13:52:00;19.40;99.90
13049;DHT22;6591;51.446;5.404;2023-08-31T13:54:27;19.80;99.90
13049;DHT22;6591;51.446;5.404;2023-08-31T13:56:54;20.10;99.90
13049;DHT22;6591;51.446;5.404;2023-08-31T13:59:21;20.20;99.90
13049;DHT22;6591;51.446;5.404;2023-08-31T14:01:48;20.50;99.90
13049;DHT22;6591;51.446;5.404;2023-08-31T14:04:15;20.70;99.90
13049;DHT22;6591;51.446;5.404;2023-08-31T14:06:43;20.80;99.90
13049;DHT22;6591;51.446;5.404;2023-08-31T14:09:10;21.10;99.90
13049;DHT22;6591;51.446;5.404;2023-08-31T14:11:37;21.00;99.90
13049;DHT22;6591;51.446;5.404;2023-08-31T14:14:05;21.10;99.90
13049;DHT22;6591;51.446;5.404;2023-08-31T14:16:39;21.10;99.90
13049;DHT22;6591;51.446;5.404;2023-08-31T14:19:06;21.10;99.90
13049;DHT22;6591;51.446;5.404;2023-08-31T14:21:33;21.20;99.90
13049;DHT22;6591;51.446;5.404;2023-08-31T14:24:00;21.20;99.90
13049;DHT22;6591;51.446;5.404;2023-08-31T14:26:27;21.30;99.90
13049;DHT22;6591;51.446;5.404;2023-08-31T14:28:54;21.30;99.90
13049;DHT22;6591;51.446;5.404;2023-08-31T14:31:21;21.40;99.90
13049;DHT22;6591;51.446;5.404;2023-08-31T14:33:49;21.50;99.90
13049;DHT22;6591;51.446;5.404;2023-08-31T14:36:16;21.60;99.90
13049;DHT22;6591;51.446;5.404;2023-08-31T14:38:44;21.70;99.90
13049;DHT22;6591;51.446;5.404;2023-08-31T14:41:12;21.70;99.90
13049;DHT22;6591;51.446;5.404;2023-08-31T14:43:39;21.80;99.90
13049;DHT22;6591;51.446;5.404;2023-08-31T14:46:06;21.90;99.90
13049;DHT22;6591;51.446;5.404;2023-08-31T14:48:33;23.20;99.90
13049;DHT22;6591;51.446;5.404;2023-08-31T14:51:00;22.10;99.90
13049;DHT22;6591;51.446;5.404;2023-08-31T14:53:27;22.30;99.70
13049;DHT22;6591;51.446;5.404;2023-08-31T14:55:55;22.50;99.50
13049;DHT22;6591;51.446;5.404;2023-08-31T14:58:23;22.40;99.20
13049;DHT22;6591;51.446;5.404;2023-08-31T15:00:50;22.50;98.90
13049;DHT22;6591;51.446;5.404;2023-08-31T15:03:17;22.40;98.90
13049;DHT22;6591;51.446;5.404;2023-08-31T15:05:48;22.40;98.90
13049;DHT22;6591;51.446;5.404;2023-08-31T15:08:16;22.40;99.10
13049;DHT22;6591;51.446;5.404;2023-08-31T15:10:43;22.30;99.00
13049;DHT22;6591;51.446;5.404;2023-08-31T15:13:10;22.20;99.00
13049;DHT22;6591;51.446;5.404;2023-08-31T15:15:37;22.00;98.70
13049;DHT22;6591;51.446;5.404;2023-08-31T15:18:05;21.80;98.70
13049;DHT22;6591;51.446;5.404;2023-08-31T15:20:32;21.60;98.80
13049;DHT22;6591;51.446;5.404;2023-08-31T15:23:00;21.40;99.00
13049;DHT22;6591;51.446;5.404;2023-08-31T15:25:27;21.20;99.50
13049;DHT22;6591;51.446;5.404;2023-08-31T15:27:54;21.10;99.30
13049;DHT22;6591;51.446;5.404;2023-08-31T15:30:21;21.90;99.70
13049;DHT22;6591;51.446;5.404;2023-08-31T15:32:49;20.70;99.70
13049;DHT22;6591;51.446;5.404;2023-08-31T15:35:16;20.70;99.90
13049;DHT22;6591;51.446;5.404;2023-08-31T15:37:43;20.60;99.90
13049;DHT22;6591;51.446;5.404;2023-08-31T15:40:14;20.50;99.90
13049;DHT22;6591;51.446;5.404;2023-08-31T15:42:41;20.60;99.90
13049;DHT22;6591;51.446;5.404;2023-08-31T15:45:08;20.70;99.90
13049;DHT22;6591;51.446;5.404;2023-08-31T15:47:35;21.00;99.90
13049;DHT22;6591;51.446;5.404;2023-08-31T15:50:02;21.20;99.90
13049;DHT22;6591;51.446;5.404;2023-08-31T15:52:30;21.40;99.90
13049;DHT22;6591;51.446;5.404;2023-08-31T15:55:00;21.60;99.90
13049;DHT22;6591;51.446;5.404;2023-08-31T15:57:31;21.80;99.90
13049;DHT22;6591;51.446;5.404;2023-08-31T15:59:59;21.90;99.90
13049;DHT22;6591;51.446;5.404;2023-08-31T16:02:26;22.10;99.90
13049;DHT22;6591;51.446;5.404;2023-08-31T16:04:53;22.20;99.90
13049;DHT22;6591;51.446;5.404;2023-08-31T16:07:21;22.20;99.90